Time;durP1;ratioP1;P1;durP2;ratioP2;P2;SDS_P1;SDS_P2;PMS_P1;PMS_P2;Temp;Humidity;BMP_temperature;BMP_pressure;BME280_temperature;BME280_humidity;BME280_pressure;Samples;Min_cycle;Max_cycle;Signal;HPM_P1;HPM_P2
2021/12/22 00:02:22;;;;;;;46.03;43.50;;;;;;;-9.70;85.77;101624.69;4973914;28;20669;-66
2021/12/22 00:04:49;;;;;;;43.92;41.65;;;;;;;-9.75;85.42;101619.66;4967156;28;20039;-68
2021/12/22 00:07:15;;;;;;;44.85;42.65;;;;;;;-9.66;85.85;101620.38;4968896;28;20089;-68
2021/12/22 00:09:42;;;;;;;39.92;37.92;;;;;;;-9.64;85.49;101624.63;4975744;28;20035;-68
2021/12/22 00:12:08;;;;;;;42.22;40.03;;;;;;;-9.64;85.54;101622.06;4972127;28;20079;-70
2021/12/22 00:14:33;;;;;;;40.75;38.67;;;;;;;-9.63;85.61;101628.03;4966431;28;20023;-68
2021/12/22 00:16:59;;;;;;;41.45;39.25;;;;;;;-9.57;85.21;101625.41;4965495;28;20467;-69
2021/12/22 00:19:24;;;;;;;40.60;38.50;;;;;;;-9.59;84.43;101630.56;4963667;28;20023;-68
2021/12/22 00:21:50;;;;;;;43.78;41.28;;;;;;;-9.61;85.27;101641.72;4968188;28;20027;-68
2021/12/22 00:24:15;;;;;;;44.72;42.05;;;;;;;-9.58;85.31;101646.81;4953101;28;20393;-68
2021/12/22 00:26:41;;;;;;;38.10;36.17;;;;;;;-9.59;84.92;101653.69;4975744;28;20057;-69
2021/12/22 00:29:08;;;;;;;39.97;37.97;;;;;;;-9.62;85.56;101653.72;4979622;28;20476;-69
2021/12/22 00:31:41;;;;;;;40.88;38.67;;;;;;;-9.60;85.83;101654.56;4977457;28;20093;-66
2021/12/22 00:34:15;;;;;;;40.28;38.28;;;;;;;-9.61;85.38;101650.28;4978027;28;20030;-69
2021/12/22 00:36:41;;;;;;;41.78;39.58;;;;;;;-9.61;85.01;101654.56;4974463;28;20034;-67
2021/12/22 00:39:07;;;;;;;41.72;39.38;;;;;;;-9.67;85.36;101655.50;4965210;28;20075;-64
2021/12/22 00:41:32;;;;;;;43.03;40.58;;;;;;;-9.68;85.78;101663.22;4972043;28;20380;-69
2021/12/22 00:43:58;;;;;;;41.70;39.47;;;;;;;-9.63;85.52;101667.41;4965887;28;20113;-75
2021/12/22 00:46:23;;;;;;;38.80;36.60;;;;;;;-9.65;85.48;101663.16;4965773;28;20046;-73
2021/12/22 00:48:49;;;;;;;37.08;35.17;;;;;;;-9.62;85.66;101669.13;4973124;28;20034;-72
2021/12/22 00:51:15;;;;;;;39.72;37.70;;;;;;;-9.62;86.19;101669.13;4973348;28;20051;-77
2021/12/22 00:53:40;;;;;;;37.75;35.83;;;;;;;-9.59;84.90;101669.09;4959544;28;20027;-78
2021/12/22 00:56:07;;;;;;;36.97;35.10;;;;;;;-9.60;85.02;101671.69;4962576;28;20584;-78
2021/12/22 00:58:33;;;;;;;37.55;35.65;;;;;;;-9.62;85.00;101665.69;4974885;28;20070;-79
2021/12/22 01:00:59;;;;;;;38.95;36.95;;;;;;;-9.60;84.55;101657.13;4975342;28;20069;-79
2021/12/22 01:03:26;;;;;;;38.45;36.47;;;;;;;-9.53;84.15;101669.00;4971483;28;20034;-77
2021/12/22 01:05:52;;;;;;;38.03;36.03;;;;;;;-9.56;85.54;101665.63;4969184;28;20030;-78
2021/12/22 01:08:17;;;;;;;39.97;37.85;;;;;;;-9.55;84.95;101669.88;4973843;28;20027;-76
2021/12/22 01:10:43;;;;;;;40.47;38.35;;;;;;;-9.56;84.97;101656.19;4975344;28;20559;-76
2021/12/22 01:13:10;;;;;;;41.10;38.97;;;;;;;-9.56;85.05;101658.75;4977349;28;20051;-77
2021/12/22 01:15:37;;;;;;;40.53;38.35;;;;;;;-9.56;84.31;101653.63;4973223;28;20105;-77
2021/12/22 01:18:17;;;;;;;40.45;38.40;;;;;;;-9.60;84.99;101653.69;4973287;28;20035;-78
2021/12/22 01:21:01;;;;;;;41.35;39.13;;;;;;;-9.58;84.64;101654.53;4980587;28;21290;-76
2021/12/22 01:23:33;;;;;;;40.78;38.63;;;;;;;-9.53;84.87;101661.31;4978391;28;20451;-78
2021/12/22 01:25:58;;;;;;;40.80;38.78;;;;;;;-9.53;84.38;101660.47;4968187;28;20042;-77
2021/12/22 01:28:26;;;;;;;41.63;39.47;;;;;;;-9.51;84.29;101645.88;4977461;28;20400;-76
2021/12/22 01:30:52;;;;;;;40.58;38.47;;;;;;;-9.50;83.99;101652.69;4975931;28;20429;-77
2021/12/22 01:33:18;;;;;;;42.30;40.15;;;;;;;-9.51;84.52;101640.72;4974073;28;20065;-79
2021/12/22 01:35:45;;;;;;;38.67;36.78;;;;;;;-9.50;83.63;101635.56;4987819;28;20472;-75
2021/12/22 01:38:11;;;;;;;39.13;37.10;;;;;;;-9.49;84.16;101644.13;4975265;28;20504;-77
2021/12/22 01:40:42;;;;;;;41.05;38.75;;;;;;;-9.55;83.95;101639.06;4981849;28;20086;-78
2021/12/22 01:43:08;;;;;;;40.72;38.67;;;;;;;-9.56;83.68;101637.38;4976169;28;20058;-78
2021/12/22 01:46:09;;;;;;;41.05;38.90;;;;;;;-9.51;83.14;101635.59;4990640;28;20034;-77
2021/12/22 01:49:11;;;;;;;39.67;37.55;;;;;;;-9.57;83.19;101633.94;4967343;28;20358;-77
2021/12/22 01:51:50;;;;;;;40.05;38.03;;;;;;;-9.54;83.14;101636.50;4959308;28;20047;-78
2021/12/22 01:54:34;;;;;;;40.20;38.17;;;;;;;-9.55;82.81;101628.78;4974760;28;20504;-80
2021/12/22 01:57:05;;;;;;;42.33;40.03;;;;;;;-9.54;81.37;101639.06;4977975;28;20388;-76
2021/12/22 01:59:33;;;;;;;38.58;36.67;;;;;;;-9.55;82.58;101636.50;4973371;28;20027;-81
2021/12/22 02:01:59;;;;;;;39.25;37.30;;;;;;;-9.50;81.86;101627.00;4970705;28;20070;-78
2021/12/22 02:04:24;;;;;;;39.80;37.80;;;;;;;-9.53;81.23;101630.47;4971196;28;20031;-80
2021/12/22 02:06:50;;;;;;;38.78;36.80;;;;;;;-9.56;80.83;101611.69;4977433;28;20110;-78
2021/12/22 02:09:28;;;;;;;39.92;37.78;;;;;;;-9.49;81.68;101623.56;4975788;28;20038;-78
2021/12/22 02:11:54;;;;;;;40.40;38.38;;;;;;;-9.49;81.37;101621.00;4974971;28;20038;-78
2021/12/22 02:14:20;;;;;;;42.08;39.88;;;;;;;-9.50;81.29;101624.44;4982426;28;20038;-78
2021/12/22 02:16:46;;;;;;;38.75;36.83;;;;;;;-9.55;81.31;101628.78;4980108;28;20031;-78
2021/12/22 02:19:12;;;;;;;39.22;37.13;;;;;;;-9.51;81.64;101633.03;4970329;28;20039;-79
2021/12/22 02:21:46;;;;;;;38.08;36.17;;;;;;;-9.47;81.71;101627.00;4979682;28;20566;-80
2021/12/22 02:24:12;;;;;;;42.50;40.35;;;;;;;-9.48;82.60;101627.84;4971227;28;20041;-79
2021/12/22 02:26:48;;;;;;;40.28;38.28;;;;;;;-9.48;82.43;101620.97;4978135;28;20058;-78
2021/12/22 02:29:20;;;;;;;39.40;37.40;;;;;;;-9.49;83.00;101615.88;4974925;28;20444;-77
2021/12/22 02:32:40;;;;;;;40.97;38.78;;;;;;;-9.44;82.56;101611.53;4975472;28;20384;-77
2021/12/22 02:34:44;;;;;;;39.45;37.45;;;;;;;-9.43;82.42;101612.38;4966824;28;20034;-78
2021/12/22 02:37:14;;;;;;;42.25;39.83;;;;;;;-9.41;82.08;101619.19;4988110;28;20078;-77
2021/12/22 02:39:47;;;;;;;38.97;37.00;;;;;;;-9.43;82.05;101612.38;4976413;28;20026;-78
2021/12/22 02:42:13;;;;;;;36.70;34.75;;;;;;;-9.37;81.73;101610.56;4964028;28;20462;-78
2021/12/22 02:44:39;;;;;;;38.08;36.20;;;;;;;-9.39;82.70;101611.47;4972842;28;20035;-77
2021/12/22 02:47:19;;;;;;;37.30;35.47;;;;;;;-9.33;80.71;101609.63;4971504;28;20037;-79
2021/12/22 02:49:45;;;;;;;38.50;36.60;;;;;;;-9.32;81.24;101615.66;4973986;28;20391;-79
2021/12/22 02:52:10;;;;;;;39.70;37.78;;;;;;;-9.33;81.87;101614.78;4973979;28;20043;-80
2021/12/22 02:54:43;;;;;;;37.78;35.88;;;;;;;-9.41;81.83;101611.47;4980891;28;20030;-80
2021/12/22 02:57:22;;;;;;;39.05;37.05;;;;;;;-9.35;82.82;101620.81;4972133;28;20033;-80
2021/12/22 03:03:00;;;;;;;37.70;35.80;;;;;;;-9.33;83.67;101624.19;4964235;28;20046;-81
2021/12/22 03:05:28;;;;;;;36.30;34.47;;;;;;;-9.34;83.18;101617.38;4977251;28;20030;-80
2021/12/22 03:07:54;;;;;;;37.00;35.20;;;;;;;-9.32;84.41;101626.78;4973647;28;20194;-80
2021/12/22 03:10:19;;;;;;;35.28;33.53;;;;;;;-9.32;84.15;101624.22;4984457;28;20527;-81
2021/12/22 03:12:50;;;;;;;35.92;34.05;;;;;;;-9.34;83.70;101618.22;4979032;28;20031;-81
2021/12/22 03:15:16;;;;;;;34.30;32.60;;;;;;;-9.32;83.70;101626.78;4972478;28;20038;-82
2021/12/22 03:17:41;;;;;;;35.83;33.88;;;;;;;-9.32;83.57;101616.50;4976432;28;20047;-81
2021/12/22 03:20:09;;;;;;;35.90;34.00;;;;;;;-9.28;82.99;101630.13;4979818;28;20034;-76
2021/12/22 03:22:36;;;;;;;34.38;32.65;;;;;;;-9.23;83.35;101631.78;4986373;28;20034;-77
2021/12/22 03:25:04;;;;;;;35.25;33.40;;;;;;;-9.19;82.75;101628.28;4973589;28;20085;-77
2021/12/22 03:27:30;;;;;;;33.58;31.88;;;;;;;-9.18;81.99;101629.13;4979198;28;20030;-79
2021/12/22 03:29:56;;;;;;;35.55;33.67;;;;;;;-9.19;81.72;101622.28;4986636;28;20030;-79
2021/12/22 03:32:21;;;;;;;33.05;31.35;;;;;;;-9.11;82.24;101629.88;4979046;28;20039;-77
2021/12/22 03:34:47;;;;;;;34.47;32.58;;;;;;;-9.14;82.00;101629.94;4981714;28;20497;-78
2021/12/22 03:37:13;;;;;;;34.13;32.33;;;;;;;-9.12;83.00;101633.31;4978857;28;20019;-78
2021/12/22 03:39:39;;;;;;;33.38;31.75;;;;;;;-9.15;81.78;101623.94;4979908;28;20106;-79
2021/12/22 03:42:10;;;;;;;33.05;31.27;;;;;;;-9.10;82.19;101627.31;4980158;28;20030;-78
2021/12/22 03:44:36;;;;;;;33.80;32.08;;;;;;;-9.14;82.38;101620.50;4975043;28;20023;-78
2021/12/22 03:47:02;;;;;;;33.22;31.58;;;;;;;-9.22;82.34;101605.19;4976390;28;20404;-78
2021/12/22 03:49:28;;;;;;;33.13;31.35;;;;;;;-9.09;83.06;101623.88;4974275;28;20037;-79
2021/12/22 03:51:54;;;;;;;33.35;31.52;;;;;;;-9.06;83.31;101623.81;4978725;28;20050;-76
2021/12/22 03:54:19;;;;;;;34.17;32.40;;;;;;;-9.13;83.25;101624.78;4980637;28;20534;-80
2021/12/22 03:56:45;;;;;;;34.00;32.20;;;;;;;-9.08;84.05;101622.13;4987562;28;20109;-78
2021/12/22 03:59:10;;;;;;;33.88;32.17;;;;;;;-9.03;84.61;101628.03;4976529;28;20027;-80
2021/12/22 04:01:36;;;;;;;32.17;30.50;;;;;;;-9.02;84.89;101620.34;4978566;28;20035;-77
2021/12/22 04:04:11;;;;;;;32.53;30.90;;;;;;;-9.01;84.80;101628.88;4975204;28;20862;-79
2021/12/22 04:06:39;;;;;;;33.20;31.50;;;;;;;-9.01;85.67;101627.16;4978539;28;20026;-81
2021/12/22 04:09:05;;;;;;;34.63;32.83;;;;;;;-8.96;85.41;101627.94;4974319;28;20081;-77
2021/12/22 04:11:32;;;;;;;35.65;33.70;;;;;;;-9.01;85.60;101626.31;4986024;28;20476;-77
2021/12/22 04:13:57;;;;;;;32.75;31.13;;;;;;;-8.96;85.36;101629.66;4973169;28;20057;-77
2021/12/22 04:16:23;;;;;;;34.60;32.80;;;;;;;-8.96;84.96;101632.22;4980305;28;20476;-77
2021/12/22 04:18:48;;;;;;;34.42;32.70;;;;;;;-8.92;84.23;101633.88;4972765;28;20110;-78
2021/12/22 04:21:14;;;;;;;35.08;33.25;;;;;;;-8.95;83.61;101629.66;4978961;28;20056;-77
2021/12/22 04:23:39;;;;;;;32.60;31.00;;;;;;;-9.05;84.41;101622.09;4986598;28;20038;-77
2021/12/22 04:26:05;;;;;;;34.90;33.20;;;;;;;-9.05;84.03;101625.50;4975354;28;20463;-80
2021/12/22 04:28:30;;;;;;;33.45;31.65;;;;;;;-9.08;84.28;101624.72;4982319;28;20027;-78
2021/12/22 04:30:59;;;;;;;33.75;31.95;;;;;;;-9.02;84.11;101637.47;4982920;28;20027;-79
2021/12/22 04:33:24;;;;;;;33.67;31.98;;;;;;;-9.02;83.72;101643.47;4975504;28;20039;-78
2021/12/22 04:35:52;;;;;;;34.20;32.30;;;;;;;-9.00;83.23;101638.28;4981337;28;20038;-79
2021/12/22 04:38:19;;;;;;;33.20;31.58;;;;;;;-9.00;83.48;101648.56;4981079;28;20132;-80
2021/12/22 04:40:45;;;;;;;33.45;31.80;;;;;;;-8.99;83.70;101652.84;4973043;28;20029;-79
2021/12/22 04:43:11;;;;;;;34.28;32.42;;;;;;;-9.02;84.20;101655.47;4983880;28;20031;-80
2021/12/22 04:45:38;;;;;;;32.95;31.25;;;;;;;-8.99;84.34;101656.25;4982661;28;20127;-78
2021/12/22 04:48:04;;;;;;;34.10;32.30;;;;;;;-9.03;85.15;101653.75;4973614;28;20051;-79
2021/12/22 04:50:31;;;;;;;32.33;30.63;;;;;;;-9.09;85.71;101643.59;4983319;28;20030;-78
2021/12/22 04:53:06;;;;;;;32.10;30.50;;;;;;;-9.04;86.79;101652.06;4972505;28;20043;-79
2021/12/22 04:55:31;;;;;;;32.30;30.70;;;;;;;-8.95;86.83;101657.06;4972178;28;20033;-80
2021/12/22 04:57:59;;;;;;;34.67;32.85;;;;;;;-8.98;87.07;101659.69;4982902;28;20027;-78
2021/12/22 05:00:27;;;;;;;35.17;33.17;;;;;;;-8.96;86.70;101655.34;4976222;28;20035;-77
2021/12/22 05:02:54;;;;;;;33.97;31.98;;;;;;;-8.94;86.87;101657.03;4981793;28;20026;-77
2021/12/22 05:05:20;;;;;;;34.22;32.38;;;;;;;-8.94;87.19;101661.34;4971270;28;20066;-80
2021/12/22 05:07:47;;;;;;;32.53;30.95;;;;;;;-8.96;87.48;101656.22;4976914;28;20034;-77
2021/12/22 05:10:14;;;;;;;32.10;30.50;;;;;;;-8.92;87.33;101655.28;4985866;28;20034;-78
2021/12/22 05:12:41;;;;;;;31.88;30.10;;;;;;;-8.89;87.74;101658.69;4981534;28;20131;-78
2021/12/22 05:15:07;;;;;;;32.90;31.10;;;;;;;-8.92;87.93;101662.16;4978944;28;20047;-78
2021/12/22 05:20:27;;;;;;;35.53;33.72;;;;;;;-8.95;86.80;101665.63;4971985;28;20065;-82
2021/12/22 05:22:52;;;;;;;34.33;32.53;;;;;;;-8.95;86.81;101664.78;4982564;28;20027;-80
2021/12/22 05:25:18;;;;;;;34.47;32.65;;;;;;;-8.95;86.38;101664.78;4988025;28;20378;-81
2021/12/22 05:27:44;;;;;;;36.70;34.80;;;;;;;-8.95;84.25;101659.66;4984072;28;20532;-80
2021/12/22 05:30:13;;;;;;;35.47;33.47;;;;;;;-8.86;83.26;101671.50;4984516;28;20029;-80
2021/12/22 05:32:40;;;;;;;34.75;32.85;;;;;;;-8.79;83.32;101678.25;4975906;28;20545;-79
2021/12/22 05:35:08;;;;;;;34.80;32.90;;;;;;;-8.87;82.15;101670.66;4975715;28;20034;-80
2021/12/22 05:37:36;;;;;;;32.42;30.73;;;;;;;-8.82;82.50;101675.72;4971371;28;20089;-79
2021/12/22 05:40:03;;;;;;;33.70;31.95;;;;;;;-8.79;82.54;101676.53;4980357;28;21496;-80
2021/12/22 05:42:29;;;;;;;33.55;31.77;;;;;;;-8.79;82.36;101676.53;4983764;28;20508;-78
2021/12/22 05:44:54;;;;;;;34.97;32.95;;;;;;;-8.71;81.88;101674.69;4973875;28;20031;-79
2021/12/22 05:47:20;;;;;;;33.75;32.03;;;;;;;-8.70;82.08;101676.38;4976552;28;20041;-80
2021/12/22 05:49:49;;;;;;;31.73;30.00;;;;;;;-8.68;81.64;101677.19;4982660;28;20126;-79
2021/12/22 05:52:16;;;;;;;31.25;29.65;;;;;;;-8.67;81.17;101681.47;4981629;28;20051;-79
2021/12/22 05:54:41;;;;;;;30.45;28.75;;;;;;;-8.64;80.27;101678.84;4977879;28;20039;-79
2021/12/22 05:57:07;;;;;;;31.90;30.17;;;;;;;-8.52;79.81;101685.53;4984670;28;20081;-78
2021/12/22 05:59:32;;;;;;;32.10;30.23;;;;;;;-8.50;79.97;101678.63;4972848;28;20082;-78
2021/12/22 06:01:58;;;;;;;29.45;27.75;;;;;;;-8.47;80.40;101686.28;4972601;28;20030;-78
2021/12/22 06:04:23;;;;;;;29.95;28.23;;;;;;;-8.37;80.21;101690.44;4973442;28;20074;-80
2021/12/22 06:06:49;;;;;;;28.40;26.88;;;;;;;-8.24;82.52;101693.56;4979123;28;20026;-79
2021/12/22 06:09:14;;;;;;;28.00;26.38;;;;;;;-7.81;79.57;101687.66;4978278;28;20026;-78
2021/12/22 06:11:40;;;;;;;25.80;24.27;;;;;;;-7.66;78.48;101691.66;4987784;28;20129;-78
2021/12/22 06:14:24;;;;;;;24.95;23.48;;;;;;;-7.07;77.36;101692.97;4978090;28;20037;-77
2021/12/22 06:16:49;;;;;;;22.65;21.35;;;;;;;-6.47;74.68;101700.16;4980548;28;20031;-77
2021/12/22 06:19:15;;;;;;;18.42;17.42;;;;;;;-5.99;72.68;101689.47;4969621;28;20079;-76
2021/12/22 06:21:41;;;;;;;16.33;15.38;;;;;;;-5.43;73.02;101699.97;4981648;28;20054;-79
2021/12/22 06:24:08;;;;;;;14.50;13.73;;;;;;;-4.86;68.96;101698.25;4981192;28;20086;-79
2021/12/22 06:26:34;;;;;;;13.52;12.70;;;;;;;-4.64;68.01;101699.25;4978319;28;20038;-77
2021/12/22 06:28:59;;;;;;;12.02;11.25;;;;;;;-3.99;65.74;101703.16;4980013;28;20030;-77
2021/12/22 06:31:25;;;;;;;12.02;11.23;;;;;;;-3.52;65.35;101700.66;4982221;28;20029;-76
2021/12/22 06:33:50;;;;;;;11.23;10.63;;;;;;;-3.05;61.32;101709.25;4980005;28;20045;-77
2021/12/22 06:36:18;;;;;;;11.63;11.02;;;;;;;-2.46;60.96;101715.59;4986468;28;20096;-78
2021/12/22 06:38:45;;;;;;;9.98;9.48;;;;;;;-1.54;56.12;101707.31;4992052;28;20026;-75
2021/12/22 06:41:10;;;;;;;10.55;9.95;;;;;;;1.14;49.62;101715.66;4986119;28;20026;-77
2021/12/22 06:43:36;;;;;;;9.93;9.43;;;;;;;2.24;46.19;101715.38;4991958;28;20030;-77
2021/12/22 06:46:01;;;;;;;9.55;9.10;;;;;;;3.65;41.94;101719.66;4986934;28;20035;-78
2021/12/22 06:48:27;;;;;;;10.38;9.77;;;;;;;3.96;41.00;101718.44;4987584;28;20019;-78
2021/12/22 06:50:54;;;;;;;11.07;10.38;;;;;;;5.20;38.40;101719.38;4992804;28;20034;-80
2021/12/22 06:53:19;;;;;;;9.68;9.18;;;;;;;3.21;40.40;101723.34;5000548;28;20030;-75
2021/12/22 06:55:45;;;;;;;10.10;9.60;;;;;;;4.96;38.00;101723.78;4982535;28;20022;-80
2021/12/22 06:58:11;;;;;;;9.23;8.82;;;;;;;6.61;36.28;101730.75;4985205;28;20041;-77
2021/12/22 07:00:37;;;;;;;9.88;9.38;;;;;;;3.84;39.06;101725.38;4975703;28;20030;-75
2021/12/22 07:03:05;;;;;;;9.80;9.30;;;;;;;0.34;45.52;101717.31;4974780;28;20027;-77
2021/12/22 07:05:30;;;;;;;11.65;10.95;;;;;;;-0.09;48.12;101731.72;4980304;28;20578;-78
2021/12/22 07:07:56;;;;;;;12.20;11.50;;;;;;;-1.24;49.58;101718.97;4985029;28;20114;-77
2021/12/22 07:10:21;;;;;;;12.75;12.05;;;;;;;-1.19;50.32;101726.56;4973910;28;20023;-79
2021/12/22 07:12:48;;;;;;;12.55;11.85;;;;;;;1.28;46.12;101734.88;4986566;28;20034;-76
2021/12/22 07:15:17;;;;;;;14.77;13.85;;;;;;;-0.03;45.93;101734.88;4979890;28;20097;-76
2021/12/22 07:17:45;;;;;;;13.25;12.43;;;;;;;-0.87;48.56;101738.13;4977376;28;20037;-78
2021/12/22 07:20:11;;;;;;;12.55;11.85;;;;;;;-1.16;49.44;101726.44;4981323;28;20105;-78
2021/12/22 07:22:37;;;;;;;12.55;11.95;;;;;;;-0.60;48.38;101741.16;4976032;28;20031;-79
2021/12/22 07:25:05;;;;;;;16.05;14.95;;;;;;;-1.22;49.71;101742.34;4982821;28;20027;-78
2021/12/22 07:27:30;;;;;;;13.30;12.55;;;;;;;-1.31;50.68;101751.41;4975791;28;20030;-79
2021/12/22 07:29:56;;;;;;;13.00;12.30;;;;;;;-2.00;51.36;101740.53;4979614;28;20146;-78
2021/12/22 07:32:21;;;;;;;12.52;11.88;;;;;;;-2.16;52.48;101749.88;4977526;28;20041;-76
2021/12/22 07:34:56;;;;;;;14.10;13.20;;;;;;;-2.07;52.85;101755.53;4974373;28;20439;-76
2021/12/22 07:37:31;;;;;;;;;;;;;;;-0.78;48.84;101748.09;4967117;28;20127;-78
2021/12/22 07:39:57;;;;;;;13.07;12.27;;;;;;;0.01;48.42;101751.22;4970723;28;19918;-74
2021/12/22 07:42:22;;;;;;;11.90;11.30;;;;;;;-1.18;49.99;101752.53;4968623;28;20037;-75
2021/12/22 07:44:48;;;;;;;12.88;12.15;;;;;;;-1.90;51.97;101748.81;4963297;28;20054;-76
2021/12/22 07:47:14;;;;;;;14.35;13.45;;;;;;;-2.39;52.94;101756.00;4976895;28;20035;-76
2021/12/22 07:49:40;;;;;;;14.15;13.35;;;;;;;-2.51;54.46;101758.19;4973642;28;20042;-75
2021/12/22 07:52:07;;;;;;;16.50;15.40;;;;;;;-2.05;54.31;101769.34;4978828;28;20106;-74
2021/12/22 07:54:34;;;;;;;13.20;12.50;;;;;;;-2.31;54.23;101757.38;4976860;28;20136;-73
2021/12/22 07:56:59;;;;;;;13.43;12.73;;;;;;;-2.72;55.08;101751.22;4983457;28;20091;-72
2021/12/22 07:59:25;;;;;;;13.95;13.23;;;;;;;-1.31;53.17;101753.16;4976758;28;20058;-77
2021/12/22 08:01:50;;;;;;;13.77;13.02;;;;;;;2.39;43.58;101758.16;4970076;28;20039;-76
2021/12/22 08:04:16;;;;;;;12.90;12.18;;;;;;;3.57;41.41;101762.13;4967905;28;20050;-73
2021/12/22 08:06:41;;;;;;;10.75;10.15;;;;;;;0.72;45.55;101757.09;4974416;28;20031;-76
2021/12/22 08:09:07;;;;;;;10.75;10.20;;;;;;;-0.67;49.34;101764.06;4970192;28;20409;-72
2021/12/22 08:11:33;;;;;;;11.45;10.85;;;;;;;-0.74;51.17;101767.03;4976877;28;20030;-72
2021/12/22 08:13:58;;;;;;;12.50;11.77;;;;;;;-0.31;49.55;101766.66;4970325;28;20042;-73
2021/12/22 08:16:24;;;;;;;11.63;11.02;;;;;;;-0.53;49.33;101771.22;4964803;28;20042;-68
2021/12/22 08:18:49;;;;;;;12.35;11.65;;;;;;;-1.54;52.24;101772.38;4976979;28;20093;-67
2021/12/22 08:21:15;;;;;;;12.60;11.90;;;;;;;-1.70;53.37;101777.38;4972799;28;20166;-67
2021/12/22 08:23:41;;;;;;;12.70;12.00;;;;;;;-1.82;53.97;101783.13;4977614;28;20035;-67
2021/12/22 08:26:07;;;;;;;14.75;13.85;;;;;;;-1.89;53.73;101774.75;4970218;28;20038;-67
2021/12/22 08:28:32;;;;;;;13.20;12.50;;;;;;;-1.81;53.04;101784.81;4972682;28;20033;-67
2021/12/22 08:30:58;;;;;;;14.13;13.32;;;;;;;-2.14;53.08;101787.03;4962123;28;20042;-67
2021/12/22 08:33:26;;;;;;;13.23;12.52;;;;;;;-2.24;54.37;101773.59;4974668;28;20070;-67
2021/12/22 08:38:50;;;;;;;13.27;12.57;;;;;;;-2.19;53.96;101783.81;4970841;28;20069;-67
2021/12/22 08:41:31;;;;;;;14.90;14.00;;;;;;;-2.70;54.98;101775.41;4975215;28;20065;-66
2021/12/22 08:44:00;;;;;;;14.48;13.68;;;;;;;-2.49;55.40;101784.13;4979358;28;20127;-68
2021/12/22 08:46:27;;;;;;;15.05;14.15;;;;;;;-2.53;54.01;101785.13;4977398;28;20039;-66
2021/12/22 08:48:53;;;;;;;13.63;12.93;;;;;;;-2.43;53.02;101770.84;4975540;28;20031;-66
2021/12/22 08:51:18;;;;;;;15.00;14.15;;;;;;;-2.60;52.86;101778.47;4977632;28;20449;-70
2021/12/22 08:53:44;;;;;;;14.65;13.85;;;;;;;-2.49;52.76;101781.53;4975614;28;20169;-69
2021/12/22 08:56:09;;;;;;;14.95;14.05;;;;;;;-2.64;53.27;101782.97;4975003;28;20038;-67
2021/12/22 08:58:36;;;;;;;14.30;13.50;;;;;;;-2.59;53.35;101769.78;4977181;28;20115;-67
2021/12/22 09:01:03;;;;;;;14.45;13.65;;;;;;;-2.65;53.35;101776.06;4969769;28;20481;-66
2021/12/22 09:03:28;;;;;;;13.85;13.07;;;;;;;-2.76;53.42;101772.19;4976692;28;20038;-66
2021/12/22 09:05:54;;;;;;;14.27;13.48;;;;;;;-2.71;54.13;101773.72;4977132;28;20027;-67
2021/12/22 09:08:19;;;;;;;14.32;13.52;;;;;;;-2.68;54.26;101775.34;4973290;28;20038;-69
2021/12/22 09:10:45;;;;;;;14.63;13.82;;;;;;;-2.51;54.06;101768.56;4974413;28;20150;-68
2021/12/22 09:13:12;;;;;;;13.95;13.25;;;;;;;-2.35;54.39;101766.22;4977449;28;20023;-67
2021/12/22 09:15:38;;;;;;;14.65;13.77;;;;;;;-2.58;53.77;101767.13;4974525;28;20031;-66
2021/12/22 09:18:04;;;;;;;13.77;12.98;;;;;;;-2.64;54.61;101759.59;4976710;28;20041;-70
2021/12/22 09:20:29;;;;;;;13.65;12.95;;;;;;;-2.57;54.49;101771.44;4966456;28;20416;-66
2021/12/22 09:22:55;;;;;;;13.88;13.18;;;;;;;-2.73;55.45;101770.31;4974930;28;20037;-67
2021/12/22 09:25:21;;;;;;;15.45;14.55;;;;;;;-2.55;54.83;101772.22;4977144;28;20056;-69
2021/12/22 09:27:46;;;;;;;14.27;13.48;;;;;;;-2.42;54.98;101766.50;4977190;28;20033;-67
2021/12/22 09:30:12;;;;;;;14.85;14.02;;;;;;;-2.48;55.52;101775.41;4970122;28;20050;-68
2021/12/22 09:32:38;;;;;;;16.00;15.00;;;;;;;-2.62;55.72;101775.94;4981264;28;20073;-67
2021/12/22 09:35:05;;;;;;;13.75;13.05;;;;;;;-2.55;56.20;101776.56;4971484;28;20117;-66
2021/12/22 09:37:31;;;;;;;14.25;13.40;;;;;;;-2.78;57.01;101772.25;4975082;28;20045;-67
2021/12/22 09:39:56;;;;;;;14.63;13.73;;;;;;;-2.61;57.28;101776.78;4962982;28;20023;-67
2021/12/22 09:42:22;;;;;;;14.13;13.32;;;;;;;-2.50;57.77;101779.81;4973092;28;20495;-67
2021/12/22 09:44:48;;;;;;;13.77;13.00;;;;;;;-2.70;58.35;101774.56;4975732;28;20023;-68
2021/12/22 09:47:23;;;;;;;13.88;13.07;;;;;;;-2.64;58.63;101776.94;4971338;28;20058;-67
2021/12/22 09:50:06;;;;;;;15.40;14.40;;;;;;;-2.64;58.64;101780.38;4969715;28;20027;-67
2021/12/22 09:52:33;;;;;;;13.70;13.00;;;;;;;-2.68;59.11;101778.78;4969119;28;20035;-65
2021/12/22 09:55:00;;;;;;;13.88;13.07;;;;;;;-2.80;59.39;101772.28;4974269;28;20077;-66
2021/12/22 09:57:28;;;;;;;14.40;13.60;;;;;;;-2.52;58.69;101782.47;4974996;28;20041;-66
2021/12/22 09:59:56;;;;;;;15.50;14.60;;;;;;;-2.44;58.83;101773.53;4970067;28;20045;-67
2021/12/22 10:02:29;;;;;;;13.63;12.90;;;;;;;-2.56;59.18;101775.72;4973658;28;20031;-69
2021/12/22 10:04:56;;;;;;;13.75;13.05;;;;;;;-2.49;60.73;101780.69;4973354;28;20026;-68
2021/12/22 10:07:30;;;;;;;15.35;14.45;;;;;;;-2.67;60.77;101777.03;4974460;28;20078;-68
2021/12/22 10:10:04;;;;;;;14.85;13.95;;;;;;;-2.59;61.51;101780.16;4977253;28;20030;-67
2021/12/22 10:12:30;;;;;;;14.15;13.45;;;;;;;-2.39;60.87;101776.78;4982446;28;20045;-67
2021/12/22 10:15:01;;;;;;;15.25;14.32;;;;;;;-2.39;61.51;101774.19;4971610;28;20054;-67
2021/12/22 10:17:42;;;;;;;13.50;12.75;;;;;;;-2.06;61.65;101778.00;4972671;28;20061;-67
2021/12/22 10:20:22;;;;;;;15.77;14.73;;;;;;;-2.13;61.59;101778.31;4979157;28;20042;-68
2021/12/22 10:22:50;;;;;;;13.55;12.82;;;;;;;-2.18;61.67;101775.09;4979372;28;20113;-68
2021/12/22 10:25:21;;;;;;;14.88;13.98;;;;;;;-2.03;61.23;101767.50;4968971;28;20028;-66
2021/12/22 10:28:09;;;;;;;13.35;12.65;;;;;;;-1.46;61.01;101772.91;4970008;28;20073;-67
2021/12/22 10:30:36;;;;;;;13.93;13.13;;;;;;;-1.39;60.61;101769.13;4971447;28;20026;-67
2021/12/22 10:33:18;;;;;;;13.15;12.40;;;;;;;-1.27;60.99;101765.97;4969865;28;20046;-67
2021/12/22 10:35:55;;;;;;;16.55;15.43;;;;;;;-1.67;63.68;101762.50;4959271;28;20071;-70
2021/12/22 10:38:26;;;;;;;12.63;12.00;;;;;;;-1.76;65.05;101760.31;4973538;28;20484;-70
2021/12/22 10:40:54;;;;;;;13.07;12.30;;;;;;;-1.98;65.96;101765.56;4979097;28;20436;-67
2021/12/22 10:43:22;;;;;;;13.75;12.90;;;;;;;-1.87;66.22;101757.31;4987684;28;20023;-69
2021/12/22 10:45:51;;;;;;;14.38;13.55;;;;;;;-1.99;66.58;101763.84;4975466;28;20049;-66
2021/12/22 10:51:09;;;;;;;16.15;15.05;;;;;;;-1.70;66.93;101761.78;4967990;28;20058;-66
2021/12/22 10:53:44;;;;;;;14.45;13.55;;;;;;;-2.10;68.05;101757.44;4974135;28;20081;-67
2021/12/22 10:56:21;;;;;;;13.82;13.02;;;;;;;-2.06;68.15;101754.63;4976691;28;20039;-68
2021/12/22 10:58:47;;;;;;;13.75;12.95;;;;;;;-1.74;67.41;101740.28;4963897;28;20173;-68
2021/12/22 11:01:17;;;;;;;13.75;12.95;;;;;;;-1.89;67.63;101750.50;4965990;28;20121;-70
2021/12/22 11:03:51;;;;;;;13.43;12.63;;;;;;;-2.15;68.46;101743.75;4972698;28;20039;-69
2021/12/22 11:06:25;;;;;;;13.93;13.13;;;;;;;-2.14;68.83;101746.28;4973636;28;20101;-68
2021/12/22 11:09:02;;;;;;;13.73;12.93;;;;;;;-2.07;68.77;101752.94;4966287;28;20034;-70
2021/12/22 11:11:36;;;;;;;13.18;12.48;;;;;;;-2.22;68.96;101743.16;4960942;28;20023;-68
2021/12/22 11:14:07;;;;;;;14.20;13.32;;;;;;;-2.32;69.51;101750.50;4965072;28;20039;-70
2021/12/22 11:16:48;;;;;;;14.68;13.77;;;;;;;-2.42;69.35;101750.91;4967447;28;20029;-69
2021/12/22 11:19:13;;;;;;;15.38;14.40;;;;;;;-2.46;70.22;101752.81;4961670;28;20038;-71
2021/12/22 11:22:25;;;;;;;14.07;13.27;;;;;;;-2.39;70.39;101762.06;4982415;28;20046;-70
2021/12/22 11:24:47;;;;;;;14.02;13.25;;;;;;;-2.20;70.15;101751.78;4963827;28;20469;-67
2021/12/22 11:27:16;;;;;;;13.73;13.00;;;;;;;-2.23;70.25;101754.47;4972311;28;20503;-68